Time;durP1;ratioP1;P1;durP2;ratioP2;P2;SDS_P1;SDS_P2;PMS_P1;PMS_P2;Temp;Humidity;BMP_temperature;BMP_pressure;BME280_temperature;BME280_humidity;BME280_pressure;Samples;Min_cycle;Max_cycle;Signal;HPM_P1;HPM_P2
2022/05/04 00:01:03;;;;;;;4.03;2.10;;;10.90;94.40;;;;;;5096914;28;20040;-42
2022/05/04 00:03:29;;;;;;;5.78;2.60;;;10.90;94.40;;;;;;5089180;28;20507;-41
2022/05/04 00:05:54;;;;;;;4.30;2.20;;;10.90;94.40;;;;;;5097867;28;20113;-42
2022/05/04 00:08:22;;;;;;;6.18;2.30;;;10.90;94.40;;;;;;5088168;28;20023;-41
2022/05/04 00:10:48;;;;;;;8.50;2.70;;;10.90;94.30;;;;;;5098577;28;20494;-41
2022/05/04 00:13:13;;;;;;;6.95;2.28;;;10.80;94.30;;;;;;5088179;28;20028;-40
2022/05/04 00:15:39;;;;;;;6.07;2.20;;;10.80;94.30;;;;;;5099620;28;20039;-41
2022/05/04 00:18:05;;;;;;;5.72;2.22;;;10.80;94.40;;;;;;5086008;28;20052;-40
2022/05/04 00:20:30;;;;;;;5.28;2.60;;;10.80;94.40;;;;;;5099697;28;20526;-41
2022/05/04 00:22:56;;;;;;;3.65;2.33;;;10.80;94.40;;;;;;5088306;28;20161;-41
2022/05/04 00:25:21;;;;;;;7.88;2.20;;;10.80;94.40;;;;;;5098332;28;20733;-43
2022/05/04 00:27:47;;;;;;;5.25;2.33;;;10.80;94.40;;;;;;5087781;28;20031;-42
2022/05/04 00:30:12;;;;;;;5.80;1.90;;;10.70;94.40;;;;;;5096339;28;20081;-42
2022/05/04 00:32:38;;;;;;;6.97;2.03;;;10.70;94.40;;;;;;5090368;28;20031;-39
2022/05/04 00:35:04;;;;;;;3.58;2.08;;;10.70;94.50;;;;;;5093543;28;20050;-42
2022/05/04 00:37:31;;;;;;;6.82;2.63;;;10.60;94.50;;;;;;5093228;28;20139;-41
2022/05/04 00:39:57;;;;;;;5.50;2.20;;;10.60;94.50;;;;;;5091261;28;20032;-40
2022/05/04 00:42:23;;;;;;;7.03;2.20;;;10.60;94.60;;;;;;5094426;28;20199;-43
2022/05/04 00:44:49;;;;;;;4.40;2.00;;;10.60;94.60;;;;;;5088645;28;20012;-43
2022/05/04 00:47:16;;;;;;;6.80;2.50;;;10.60;94.60;;;;;;5103791;28;20109;-41
2022/05/04 00:49:46;;;;;;;5.20;2.20;;;10.50;94.60;;;;;;5105701;28;20039;-40
2022/05/04 00:52:15;;;;;;;6.03;2.30;;;10.50;94.60;;;;;;5096444;28;20032;-42
2022/05/04 00:54:46;;;;;;;4.88;3.30;;;10.50;94.70;;;;;;5105462;28;20035;-40
2022/05/04 00:57:14;;;;;;;6.18;2.10;;;10.50;94.70;;;;;;5095824;28;20009;-41
2022/05/04 00:59:41;;;;;;;4.97;2.13;;;10.50;94.70;;;;;;5086999;28;20079;-40
2022/05/04 01:02:06;;;;;;;7.20;2.38;;;10.40;94.70;;;;;;5098960;28;20036;-43
2022/05/04 01:04:32;;;;;;;4.03;2.05;;;10.40;94.70;;;;;;5086145;28;20070;-42
2022/05/04 01:06:58;;;;;;;3.97;2.30;;;10.50;94.70;;;;;;5099271;28;20494;-39
2022/05/04 01:09:23;;;;;;;7.72;2.20;;;10.40;94.70;;;;;;5085911;28;20414;-42
2022/05/04 01:11:49;;;;;;;8.50;2.38;;;10.40;94.70;;;;;;5097855;28;20035;-44
2022/05/04 01:14:16;;;;;;;8.35;2.45;;;10.40;94.80;;;;;;5087524;28;20132;-43
2022/05/04 01:16:45;;;;;;;4.05;2.13;;;10.40;94.80;;;;;;5095130;28;20030;-42
2022/05/04 01:19:11;;;;;;;3.50;1.88;;;10.40;94.80;;;;;;5089912;28;20435;-42
2022/05/04 01:21:37;;;;;;;7.30;3.10;;;10.40;94.80;;;;;;5091517;28;20012;-41
2022/05/04 01:24:03;;;;;;;7.63;2.20;;;10.40;94.80;;;;;;5092290;28;20025;-41
2022/05/04 01:26:29;;;;;;;6.93;2.10;;;10.40;94.80;;;;;;5089302;28;20016;-42
2022/05/04 01:28:57;;;;;;;6.68;2.20;;;10.40;94.80;;;;;;5094357;28;20054;-40
2022/05/04 01:31:23;;;;;;;6.22;2.20;;;10.40;94.80;;;;;;5086780;28;20103;-43
2022/05/04 01:33:49;;;;;;;7.13;2.13;;;10.40;94.80;;;;;;5097180;28;20234;-43
2022/05/04 01:36:14;;;;;;;7.15;2.25;;;10.40;95.10;;;;;;5086555;28;20091;-42
2022/05/04 01:38:40;;;;;;;5.22;2.20;;;10.30;94.80;;;;;;5096794;28;20530;-43
2022/05/04 01:42:02;;;;;;;4.88;2.03;;;10.30;94.80;;;;;;5085394;28;20718;-43
2022/05/04 01:43:51;;;;;;;3.83;2.03;;;10.30;94.80;;;;;;5093736;28;20064;-41
2022/05/04 01:46:16;;;;;;;6.97;2.40;;;10.30;94.80;;;;;;5086179;28;20059;-42
2022/05/04 01:48:42;;;;;;;7.32;2.33;;;10.30;94.80;;;;;;5098177;28;20047;-43
2022/05/04 01:51:07;;;;;;;5.43;2.05;;;10.20;94.80;;;;;;5085026;28;20881;-41
2022/05/04 01:53:33;;;;;;;6.97;2.30;;;10.20;94.80;;;;;;5097027;28;20044;-41
2022/05/04 01:56:01;;;;;;;4.75;2.20;;;10.20;94.80;;;;;;5085676;28;20140;-41
2022/05/04 01:58:27;;;;;;;5.75;2.25;;;10.10;94.80;;;;;;5096121;28;20028;-41
2022/05/04 02:00:52;;;;;;;4.38;2.40;;;10.10;94.80;;;;;;5086240;28;20036;-42
2022/05/04 02:03:18;;;;;;;3.70;2.13;;;10.10;94.90;;;;;;5093812;28;20016;-42
2022/05/04 02:05:43;;;;;;;3.92;2.15;;;10.00;94.90;;;;;;5088422;28;20478;-42
2022/05/04 02:08:09;;;;;;;5.00;2.33;;;10.00;94.90;;;;;;5091685;28;20544;-42
2022/05/04 02:10:34;;;;;;;5.28;2.20;;;9.90;95.00;;;;;;5090473;28;20028;-42
2022/05/04 02:13:00;;;;;;;8.45;3.10;;;9.90;95.10;;;;;;5089388;28;20032;-43
2022/05/04 02:15:25;;;;;;;6.88;2.65;;;9.90;95.20;;;;;;5093814;28;20098;-42
2022/05/04 02:17:51;;;;;;;5.55;2.53;;;9.80;95.30;;;;;;5085928;28;20099;-43
2022/05/04 02:20:16;;;;;;;8.05;2.60;;;9.80;95.30;;;;;;5096506;28;20106;-43
2022/05/04 02:22:42;;;;;;;7.53;2.90;;;9.70;95.40;;;;;;5086445;28;20047;-42
2022/05/04 02:25:08;;;;;;;9.02;2.85;;;9.70;95.50;;;;;;5095901;28;20028;-44
2022/05/04 02:27:33;;;;;;;8.10;3.03;;;9.70;95.50;;;;;;5084789;28;20062;-41
2022/05/04 02:29:59;;;;;;;6.03;2.85;;;9.60;95.60;;;;;;5097765;28;20550;-42
2022/05/04 02:32:25;;;;;;;5.05;2.65;;;9.60;95.60;;;;;;5083738;28;20024;-40
2022/05/04 02:40:21;;;;;;;6.00;3.17;;;9.50;95.70;;;;;;5097407;28;20502;-38
2022/05/04 02:42:47;;;;;;;6.45;2.65;;;9.50;95.80;;;;;;5085240;28;20020;-41
2022/05/04 02:45:14;;;;;;;7.40;3.17;;;9.50;95.90;;;;;;5097928;28;20038;-42
2022/05/04 02:47:40;;;;;;;6.63;2.90;;;9.50;95.90;;;;;;5090215;28;20467;-42
2022/05/04 02:50:07;;;;;;;5.75;2.45;;;9.40;96.10;;;;;;5094326;28;20077;-42
2022/05/04 02:52:32;;;;;;;11.45;3.08;;;9.40;96.00;;;;;;5103779;28;20847;-41
2022/05/04 02:54:58;;;;;;;10.90;2.90;;;9.40;96.20;;;;;;5098347;28;20036;-41
2022/05/04 02:57:24;;;;;;;7.28;2.78;;;9.30;96.30;;;;;;5104639;28;20118;-43
2022/05/04 02:59:49;;;;;;;8.98;3.20;;;9.30;96.30;;;;;;5102644;28;20421;-44
2022/05/04 03:02:27;;;;;;;5.88;2.67;;;9.30;96.30;;;;;;5102382;28;20057;-43
2022/05/04 03:04:54;;;;;;;5.15;2.95;;;9.20;96.30;;;;;;5103932;28;20030;-42
2022/05/04 03:07:20;;;;;;;8.80;2.88;;;9.20;96.40;;;;;;5100661;28;20032;-40
2022/05/04 03:09:45;;;;;;;6.53;2.40;;;9.20;96.40;;;;;;5105854;28;20038;-42
2022/05/04 03:12:11;;;;;;;5.50;2.30;;;9.20;96.40;;;;;;5098286;28;20027;-41
2022/05/04 03:14:36;;;;;;;7.25;2.55;;;9.20;96.40;;;;;;5106624;28;20154;-43
2022/05/04 03:17:02;;;;;;;5.50;2.63;;;9.20;96.50;;;;;;5097424;28;20413;-42
2022/05/04 03:19:27;;;;;;;7.78;2.55;;;9.10;96.40;;;;;;5107720;28;20096;-42
2022/05/04 03:21:53;;;;;;;8.05;2.55;;;9.10;96.50;;;;;;5096476;28;20051;-42
2022/05/04 03:24:19;;;;;;;7.88;2.55;;;9.10;96.50;;;;;;5109327;28;20096;-42
2022/05/04 03:26:45;;;;;;;6.65;2.78;;;9.10;96.50;;;;;;5095319;28;20031;-41
2022/05/04 03:29:11;;;;;;;5.38;2.33;;;9.10;96.50;;;;;;5108146;28;20050;-41
2022/05/04 03:31:36;;;;;;;5.90;2.55;;;9.10;96.50;;;;;;5095989;28;20020;-41
2022/05/04 03:34:03;;;;;;;5.25;2.92;;;9.10;96.50;;;;;;5108191;28;20035;-41
2022/05/04 03:36:29;;;;;;;6.20;2.40;;;9.10;96.60;;;;;;5098075;28;20020;-42
2022/05/04 03:38:54;;;;;;;6.90;2.55;;;9.10;96.60;;;;;;5105736;28;20421;-40
2022/05/04 03:41:21;;;;;;;7.75;2.90;;;9.00;96.60;;;;;;5101845;28;20578;-41
2022/05/04 03:43:47;;;;;;;4.25;2.30;;;9.00;96.60;;;;;;5102076;28;20031;-41
2022/05/04 03:46:15;;;;;;;6.60;2.58;;;9.00;96.60;;;;;;5102280;28;20659;-43
2022/05/04 03:48:41;;;;;;;6.13;2.80;;;9.10;96.60;;;;;;5103913;28;20023;-42
2022/05/04 03:51:06;;;;;;;4.88;2.80;;;9.00;96.60;;;;;;5105810;28;20019;-41
2022/05/04 03:53:32;;;;;;;3.35;1.90;;;9.00;96.60;;;;;;5097455;28;20030;-43
2022/05/04 03:55:57;;;;;;;10.65;2.50;;;9.10;96.60;;;;;;5105800;28;20050;-42
2022/05/04 03:58:23;;;;;;;7.82;2.53;;;9.10;96.60;;;;;;5096424;28;20043;-43
2022/05/04 04:00:48;;;;;;;9.13;3.30;;;9.00;96.50;;;;;;5106860;28;20031;-41
2022/05/04 04:03:14;;;;;;;3.97;1.92;;;9.00;96.60;;;;;;5095867;28;20024;-42
2022/05/04 04:05:39;;;;;;;4.78;2.40;;;9.00;96.60;;;;;;5107687;28;20026;-40
2022/05/04 04:08:05;;;;;;;6.22;2.75;;;9.00;96.50;;;;;;5094440;28;20094;-41
2022/05/04 04:10:31;;;;;;;5.85;2.72;;;9.10;96.50;;;;;;5107510;28;20047;-39
2022/05/04 04:12:56;;;;;;;7.72;2.72;;;9.10;96.50;;;;;;5095793;28;20027;-38
2022/05/04 04:15:22;;;;;;;8.40;2.83;;;9.10;96.50;;;;;;5106912;28;20122;-42
2022/05/04 04:17:47;;;;;;;6.57;2.63;;;9.00;96.40;;;;;;5097698;28;20028;-41
2022/05/04 04:22:57;;;;;;;7.03;2.50;;;9.00;96.30;;;;;;5098857;28;20067;-41
2022/05/04 04:25:23;;;;;;;5.20;2.28;;;9.00;96.20;;;;;;5103393;28;20055;-42
2022/05/04 04:27:48;;;;;;;6.50;2.40;;;9.00;96.20;;;;;;5101090;28;20127;-41
2022/05/04 04:30:14;;;;;;;6.63;2.40;;;9.00;96.20;;;;;;5100682;28;20034;-43
2022/05/04 04:32:40;;;;;;;8.38;2.30;;;9.00;96.20;;;;;;5102085;28;20024;-42
2022/05/04 04:35:06;;;;;;;7.88;2.75;;;9.00;96.10;;;;;;5098599;28;20028;-39
2022/05/04 04:37:31;;;;;;;5.53;2.40;;;9.00;96.10;;;;;;5106008;28;20016;-41
2022/05/04 04:39:57;;;;;;;4.90;2.67;;;9.00;96.00;;;;;;5095776;28;20019;-40
2022/05/04 04:42:22;;;;;;;5.80;2.22;;;9.00;96.10;;;;;;5106063;28;20028;-42
2022/05/04 04:44:54;;;;;;;4.95;2.05;;;9.00;96.10;;;;;;5096055;28;20084;-39
2022/05/04 04:47:19;;;;;;;9.43;2.35;;;8.90;96.00;;;;;;5105730;28;20386;-44
2022/05/04 04:49:45;;;;;;;6.57;2.22;;;8.90;96.10;;;;;;5094750;28;20501;-41
2022/05/04 04:52:10;;;;;;;5.72;2.30;;;8.90;96.10;;;;;;5107207;28;20466;-38
2022/05/04 04:54:36;;;;;;;7.57;2.88;;;8.90;96.00;;;;;;5094281;28;20047;-41
2022/05/04 04:57:01;;;;;;;6.55;2.45;;;8.90;96.00;;;;;;5107432;28;20027;-41
2022/05/04 04:59:27;;;;;;;7.07;2.60;;;8.90;96.00;;;;;;5094330;28;20147;-39
2022/05/04 05:01:52;;;;;;;7.45;2.90;;;8.80;96.00;;;;;;5106283;28;20031;-42
2022/05/04 05:04:18;;;;;;;4.28;2.30;;;8.80;96.10;;;;;;5097529;28;20028;-40
2022/05/04 05:06:44;;;;;;;8.25;2.78;;;8.70;96.10;;;;;;5102056;28;20136;-41
2022/05/04 05:09:09;;;;;;;8.38;3.03;;;8.70;96.20;;;;;;5100424;28;20045;-42
2022/05/04 05:11:35;;;;;;;7.20;2.42;;;8.70;96.20;;;;;;5099302;28;20027;-41
2022/05/04 05:16:48;;;;;;;7.00;2.47;;;8.60;96.20;;;;;;5098990;28;20780;-41
2022/05/04 05:19:13;;;;;;;8.00;2.67;;;8.60;96.30;;;;;;5102206;28;20556;-42
2022/05/04 05:21:39;;;;;;;8.55;2.67;;;8.60;96.30;;;;;;5096068;28;20033;-43
2022/05/04 05:24:05;;;;;;;5.35;2.30;;;8.60;96.30;;;;;;5106198;28;20026;-42
2022/05/04 05:26:31;;;;;;;6.40;2.65;;;8.60;96.30;;;;;;5094907;28;20029;-42
2022/05/04 05:28:57;;;;;;;5.63;2.42;;;8.70;96.30;;;;;;5104492;28;20398;-42
2022/05/04 05:31:22;;;;;;;6.85;2.63;;;8.70;96.30;;;;;;5095146;28;20015;-43
2022/05/04 05:33:50;;;;;;;8.07;2.70;;;8.70;96.20;;;;;;5106284;28;20380;-43
2022/05/04 05:36:16;;;;;;;6.28;2.40;;;8.70;96.20;;;;;;5092647;28;20134;-43
2022/05/04 05:38:41;;;;;;;5.05;2.13;;;8.80;96.20;;;;;;5102810;28;20111;-41
2022/05/04 05:41:07;;;;;;;5.47;2.13;;;8.80;96.20;;;;;;5090812;28;20043;-42
2022/05/04 05:43:32;;;;;;;7.00;2.53;;;8.70;96.20;;;;;;5103399;28;20046;-41
2022/05/04 05:45:58;;;;;;;6.60;2.80;;;8.80;96.10;;;;;;5094065;28;20055;-42
2022/05/04 05:48:23;;;;;;;7.75;2.67;;;8.70;96.10;;;;;;5091083;28;20105;-41
2022/05/04 05:50:52;;;;;;;9.27;3.00;;;8.80;96.10;;;;;;5093633;28;20081;-43
2022/05/04 05:53:19;;;;;;;10.88;2.85;;;8.80;96.10;;;;;;5088213;28;20031;-41
2022/05/04 05:55:44;;;;;;;7.03;2.67;;;8.80;96.00;;;;;;5090971;28;20043;-41
2022/05/04 05:58:10;;;;;;;8.32;2.78;;;8.80;96.00;;;;;;5091170;28;20112;-43
2022/05/04 06:00:36;;;;;;;3.90;2.17;;;8.90;96.00;;;;;;5088272;28;20024;-41
2022/05/04 06:03:02;;;;;;;4.47;2.47;;;8.90;96.00;;;;;;5093382;28;20020;-42
2022/05/04 06:05:28;;;;;;;4.60;2.15;;;8.90;96.00;;;;;;5086146;28;20105;-42
2022/05/04 06:07:54;;;;;;;5.07;1.90;;;8.90;95.90;;;;;;5095982;28;20039;-42
2022/05/04 06:10:20;;;;;;;8.60;2.83;;;9.00;95.90;;;;;;5085489;28;20036;-43
2022/05/04 06:12:45;;;;;;;9.15;2.88;;;9.00;95.80;;;;;;5095936;28;20580;-42
2022/05/04 06:15:12;;;;;;;6.78;2.30;;;9.00;95.80;;;;;;5085156;28;20539;-41
2022/05/04 06:17:38;;;;;;;8.50;2.70;;;9.00;95.80;;;;;;5093384;28;20137;-43
2022/05/04 06:20:05;;;;;;;7.18;2.30;;;9.10;95.80;;;;;;5105292;28;20106;-41
2022/05/04 06:22:31;;;;;;;5.00;2.15;;;9.10;95.70;;;;;;5090694;28;20031;-42
2022/05/04 06:24:56;;;;;;;5.32;1.73;;;9.10;95.70;;;;;;5104498;28;20035;-40
2022/05/04 06:27:23;;;;;;;3.40;2.03;;;9.20;95.70;;;;;;5093803;28;20032;-42
2022/05/04 06:35:17;;;;;;;6.97;2.17;;;9.30;95.50;;;;;;5068994;28;20052;-41
2022/05/04 06:37:42;;;;;;;7.85;3.05;;;9.40;95.50;;;;;;5095031;28;20027;-41
2022/05/04 06:40:08;;;;;;;5.43;2.15;;;9.40;95.40;;;;;;5090211;28;20036;-43
2022/05/04 06:42:37;;;;;;;12.40;2.92;;;9.40;95.30;;;;;;5093315;28;20134;-41
2022/05/04 06:45:04;;;;;;;8.90;3.47;;;9.40;95.20;;;;;;5089120;28;20224;-41
2022/05/04 06:47:29;;;;;;;6.85;2.30;;;9.50;95.20;;;;;;5090888;28;20024;-41
2022/05/04 06:49:55;;;;;;;6.00;2.25;;;9.50;95.20;;;;;;5089283;28;20054;-43
2022/05/04 06:52:24;;;;;;;4.13;1.90;;;9.60;95.20;;;;;;5095419;28;20095;-43
2022/05/04 06:54:53;;;;;;;5.22;2.25;;;9.60;95.20;;;;;;5101033;28;20700;-43
2022/05/04 06:57:19;;;;;;;6.10;2.08;;;9.70;95.10;;;;;;5107183;28;20042;-42
2022/05/04 06:59:44;;;;;;;6.97;2.00;;;9.70;95.10;;;;;;5097525;28;20044;-41
2022/05/04 07:02:10;;;;;;;5.05;1.95;;;9.70;95.00;;;;;;5106590;28;20058;-42
2022/05/04 07:04:35;;;;;;;4.25;2.17;;;9.80;95.00;;;;;;5097333;28;20028;-42
2022/05/04 07:07:02;;;;;;;4.68;2.05;;;9.80;94.90;;;;;;5108489;28;20055;-41
2022/05/04 07:09:27;;;;;;;7.30;2.35;;;9.90;94.90;;;;;;5096399;28;20020;-42
2022/05/04 07:11:53;;;;;;;7.93;3.45;;;9.90;94.90;;;;;;5109598;28;20023;-42
2022/05/04 07:14:19;;;;;;;6.55;2.40;;;10.00;94.80;;;;;;5095500;28;20035;-43
2022/05/04 07:16:45;;;;;;;5.50;1.95;;;10.00;94.70;;;;;;5109206;28;20073;-41
2022/05/04 07:19:10;;;;;;;2.67;1.67;;;10.00;94.70;;;;;;5097180;28;20036;-42
2022/05/04 07:21:36;;;;;;;4.55;2.00;;;10.10;94.70;;;;;;5107687;28;20020;-43
2022/05/04 07:24:05;;;;;;;5.63;2.20;;;10.10;94.70;;;;;;5099561;28;20032;-43
2022/05/04 07:26:31;;;;;;;3.35;1.50;;;10.10;94.60;;;;;;5106005;28;20038;-42
2022/05/04 07:28:56;;;;;;;7.57;2.00;;;10.20;94.60;;;;;;5101613;28;20040;-40
2022/05/04 07:31:25;;;;;;;4.00;1.95;;;10.20;94.50;;;;;;5103180;28;20015;-42
2022/05/04 07:33:51;;;;;;;6.63;2.05;;;10.20;94.50;;;;;;5103784;28;20040;-42
2022/05/04 07:36:16;;;;;;;5.13;2.30;;;10.30;94.40;;;;;;5099355;28;20019;-41
2022/05/04 07:38:44;;;;;;;7.00;2.50;;;10.30;94.30;;;;;;5106014;28;20027;-42
2022/05/04 07:43:54;;;;;;;5.50;2.50;;;10.30;94.30;;;;;;5106805;28;20105;-42
2022/05/04 07:46:20;;;;;;;4.85;2.20;;;10.30;94.20;;;;;;5097084;28;20500;-41
2022/05/04 07:48:45;;;;;;;5.60;2.45;;;10.30;94.30;;;;;;5092863;28;20020;-41
2022/05/04 07:51:13;;;;;;;5.30;2.33;;;10.40;94.30;;;;;;5098868;28;20051;-42
2022/05/04 07:53:39;;;;;;;4.25;2.03;;;10.40;94.20;;;;;;5088917;28;20028;-44
2022/05/04 07:56:05;;;;;;;3.70;1.65;;;10.50;94.20;;;;;;5098968;28;20070;-44
2022/05/04 07:58:30;;;;;;;5.00;2.10;;;10.50;94.20;;;;;;5087206;28;20125;-45
2022/05/04 08:06:24;;;;;;;4.30;2.20;;;10.60;94.00;;;;;;5095110;28;20092;-42
2022/05/04 08:08:49;;;;;;;5.25;2.47;;;10.70;94.00;;;;;;5108220;28;20044;-43
2022/05/04 08:11:15;;;;;;;6.80;2.75;;;10.70;93.80;;;;;;5094343;28;20390;-43
2022/05/04 08:13:40;;;;;;;5.70;2.83;;;10.70;93.70;;;;;;5107467;28;20032;-42
2022/05/04 08:16:07;;;;;;;5.53;2.92;;;10.80;93.70;;;;;;5095719;28;20032;-40
2022/05/04 08:18:33;;;;;;;4.32;2.50;;;10.90;93.50;;;;;;5106993;28;20024;-42
2022/05/04 08:20:59;;;;;;;5.93;2.85;;;10.90;93.50;;;;;;5098259;28;20027;-41
2022/05/04 08:23:25;;;;;;;6.75;2.90;;;11.00;93.40;;;;;;5103345;28;20758;-41
2022/05/04 08:25:50;;;;;;;6.18;2.70;;;11.00;93.40;;;;;;5098178;28;20036;-43
2022/05/04 08:28:17;;;;;;;2.85;2.10;;;11.10;93.40;;;;;;5102223;28;20050;-42
2022/05/04 08:30:43;;;;;;;6.38;2.92;;;11.10;93.40;;;;;;5102645;28;20338;-41
2022/05/04 08:33:09;;;;;;;3.63;2.00;;;11.20;93.40;;;;;;5100153;28;20032;-41
2022/05/04 08:35:34;;;;;;;3.78;2.10;;;11.20;93.30;;;;;;5105641;28;20040;-43
2022/05/04 08:38:00;;;;;;;5.65;3.17;;;11.30;93.30;;;;;;5096051;28;20065;-43
2022/05/04 08:40:25;;;;;;;3.47;2.22;;;11.30;93.10;;;;;;5105703;28;20521;-41
2022/05/04 08:42:51;;;;;;;8.70;2.53;;;11.40;93.10;;;;;;5095471;28;20031;-41
2022/05/04 08:45:17;;;;;;;5.47;2.47;;;11.50;92.90;;;;;;5105921;28;20030;-43
2022/05/04 08:47:45;;;;;;;6.18;2.35;;;11.60;92.70;;;;;;5091850;28;20039;-42
2022/05/04 08:50:16;;;;;;;3.65;2.10;;;11.60;92.60;;;;;;5087022;28;20032;-43
2022/05/04 08:52:53;;;;;;;3.85;2.10;;;11.70;92.50;;;;;;5097530;28;20027;-42
2022/05/04 08:55:21;;;;;;;5.85;2.70;;;11.80;92.20;;;;;;5086321;28;20039;-44
2022/05/04 08:57:47;;;;;;;5.63;2.50;;;11.80;91.60;;;;;;5099757;28;20043;-41
2022/05/04 09:00:13;;;;;;;5.60;2.20;;;11.90;91.70;;;;;;5085738;28;20066;-42
2022/05/04 09:02:39;;;;;;;5.53;2.30;;;11.90;91.90;;;;;;5097925;28;20023;-42
2022/05/04 09:05:32;;;;;;;3.83;2.00;;;12.00;92.00;;;;;;5087181;28;20024;-43
2022/05/04 09:07:58;;;;;;;5.82;2.20;;;12.00;92.20;;;;;;5095034;28;20118;-43
2022/05/04 09:10:32;;;;;;;6.25;2.50;;;12.10;91.80;;;;;;5086820;28;20180;-41
2022/05/04 09:12:59;;;;;;;4.95;2.40;;;12.10;91.80;;;;;;5097344;28;20023;-42
2022/05/04 09:15:32;;;;;;;4.90;2.17;;;12.10;91.60;;;;;;5086909;28;20070;-41
2022/05/04 09:18:01;;;;;;;5.88;2.38;;;12.20;91.70;;;;;;5096817;28;20052;-43
2022/05/04 09:23:21;;;;;;;5.63;2.33;;;12.30;91.30;;;;;;5098020;28;20536;-42
2022/05/04 09:25:49;;;;;;;3.58;2.58;;;12.30;91.40;;;;;;5085809;28;20437;-41
2022/05/04 09:28:15;;;;;;;6.70;2.55;;;12.40;91.30;;;;;;5095275;28;20024;-43
2022/05/04 09:30:54;;;;;;;4.15;2.10;;;12.50;91.40;;;;;;5089085;28;20020;-43
2022/05/04 09:33:22;;;;;;;5.28;2.15;;;12.60;91.40;;;;;;5094697;28;20055;-41
2022/05/04 09:35:49;;;;;;;3.20;1.95;;;12.80;91.40;;;;;;5088471;28;20105;-42
2022/05/04 09:46:42;;;;;;;4.93;2.67;;;13.10;90.90;;;;;;5064866;28;20071;-41
2022/05/04 09:49:12;;;;;;;5.57;3.90;;;13.10;90.30;;;;;;5086101;28;20046;-42
2022/05/04 09:51:40;;;;;;;3.53;2.55;;;13.10;90.40;;;;;;5065510;28;20055;-42
2022/05/04 09:54:17;;;;;;;3.55;1.90;;;13.20;90.50;;;;;;5089281;28;20111;-42
2022/05/04 09:56:45;;;;;;;4.75;2.50;;;13.30;90.50;;;;;;5086936;28;20016;-43
2022/05/04 09:59:13;;;;;;;7.10;2.95;;;13.40;90.40;;;;;;5094925;28;20059;-42
2022/05/04 10:01:42;;;;;;;3.67;2.22;;;13.50;90.50;;;;;;5088727;28;20665;-42
2022/05/04 10:04:09;;;;;;;2.47;1.80;;;13.60;90.50;;;;;;5092664;28;20027;-43
2022/05/04 10:06:35;;;;;;;4.75;2.28;;;13.60;90.50;;;;;;5091464;28;20107;-41
2022/05/04 10:09:02;;;;;;;3.70;2.10;;;13.80;90.60;;;;;;5090226;28;20035;-44
2022/05/04 10:11:30;;;;;;;4.20;2.08;;;13.90;90.50;;;;;;5093949;28;20521;-43
2022/05/04 10:14:01;;;;;;;3.60;2.50;;;14.00;90.40;;;;;;5088488;28;20773;-41
2022/05/04 10:16:28;;;;;;;4.25;2.53;;;14.10;90.30;;;;;;5094039;28;20021;-41
2022/05/04 10:18:55;;;;;;;6.75;3.53;;;14.20;90.20;;;;;;5087449;28;20162;-42
2022/05/04 10:21:22;;;;;;;5.20;2.90;;;14.20;88.80;;;;;;5096762;28;20020;-42
2022/05/04 10:23:52;;;;;;;5.50;2.92;;;14.20;88.60;;;;;;5086129;28;20016;-42
2022/05/04 10:26:31;;;;;;;6.82;2.55;;;14.20;88.10;;;;;;5096051;28;20414;-42
2022/05/04 10:31:52;;;;;;;4.32;2.63;;;14.20;88.30;;;;;;5096386;28;20047;-42
2022/05/04 10:34:17;;;;;;;5.25;2.70;;;14.20;88.10;;;;;;5086386;28;20485;-43
2022/05/04 10:36:46;;;;;;;5.03;3.00;;;14.10;87.30;;;;;;5096575;28;20028;-43
2022/05/04 10:39:19;;;;;;;5.43;2.97;;;14.10;88.00;;;;;;5086326;28;20035;-42
2022/05/04 10:41:44;;;;;;;3.40;2.20;;;14.10;88.30;;;;;;5094122;28;20024;-42
2022/05/04 10:44:11;;;;;;;4.22;2.53;;;14.10;88.60;;;;;;5085573;28;20771;-42
2022/05/04 10:46:46;;;;;;;4.72;3.03;;;14.10;88.40;;;;;;5097205;28;20040;-42
2022/05/04 10:49:14;;;;;;;6.88;3.45;;;14.10;88.10;;;;;;5100717;28;20380;-42
2022/05/04 10:51:42;;;;;;;5.28;3.20;;;14.20;87.80;;;;;;5089463;28;20036;-43
2022/05/04 10:54:13;;;;;;;5.50;2.80;;;14.20;87.60;;;;;;5106063;28;20562;-42
2022/05/04 10:56:47;;;;;;;3.85;3.10;;;14.20;87.80;;;;;;5092993;28;20045;-43
2022/05/04 10:59:26;;;;;;;6.32;3.58;;;14.20;87.60;;;;;;5105284;28;20057;-43
2022/05/04 11:01:55;;;;;;;7.40;4.63;;;14.30;87.50;;;;;;5091677;28;20097;-43
2022/05/04 11:04:28;;;;;;;8.40;4.50;;;14.20;85.90;;;;;;5105167;28;20077;-39
2022/05/04 11:06:57;;;;;;;7.57;4.53;;;14.30;85.70;;;;;;5092476;28;20403;-42
2022/05/04 11:09:31;;;;;;;5.47;3.83;;;14.30;85.00;;;;;;5105532;28;20030;-40
2022/05/04 11:12:01;;;;;;;7.30;4.05;;;14.20;85.70;;;;;;5093005;28;20089;-42
2022/05/04 11:14:27;;;;;;;7.47;4.13;;;14.20;85.90;;;;;;5104921;28;20032;-41
2022/05/04 11:16:54;;;;;;;5.10;3.20;;;14.20;86.20;;;;;;5098786;28;20026;-42
2022/05/04 11:19:23;;;;;;;7.50;4.20;;;14.20;86.50;;;;;;5105788;28;20055;-43
2022/05/04 11:21:49;;;;;;;7.15;4.20;;;14.30;86.50;;;;;;5101081;28;20031;-44
2022/05/04 11:24:16;;;;;;;7.20;4.22;;;14.50;86.20;;;;;;5104005;28;20035;-42
2022/05/04 11:26:47;;;;;;;5.25;3.25;;;14.50;85.60;;;;;;5102303;28;20030;-38
2022/05/04 11:29:15;;;;;;;6.63;3.90;;;14.60;85.80;;;;;;5101994;28;20486;-43
2022/05/04 11:31:52;;;;;;;8.52;4.90;;;14.60;85.50;;;;;;5104318;28;20020;-42
2022/05/04 11:34:18;;;;;;;8.90;4.72;;;14.70;84.70;;;;;;5100830;28;20027;-43
2022/05/04 11:36:46;;;;;;;6.90;4.60;;;14.60;84.90;;;;;;5105115;28;20028;-42
2022/05/04 11:39:20;;;;;;;6.65;4.35;;;14.70;84.50;;;;;;5099577;28;20032;-43
2022/05/04 11:41:56;;;;;;;8.25;4.85;;;14.70;84.90;;;;;;5105722;28;20423;-43
2022/05/04 11:44:24;;;;;;;7.57;4.10;;;14.70;84.60;;;;;;5098799;28;20111;-42
2022/05/04 11:46:51;;;;;;;7.35;4.75;;;14.70;84.90;;;;;;5107480;28;20070;-45
2022/05/04 11:49:19;;;;;;;11.95;4.28;;;14.70;84.80;;;;;;5103162;28;20043;-43
2022/05/04 11:51:44;;;;;;;8.98;4.78;;;14.70;84.30;;;;;;5106681;28;20024;-43
2022/05/04 11:54:10;;;;;;;6.53;4.10;;;14.70;83.80;;;;;;5097204;28;20772;-42
2022/05/04 11:56:36;;;;;;;5.75;3.55;;;14.80;84.20;;;;;;5107301;28;20016;-44
2022/05/04 11:59:03;;;;;;;6.50;3.88;;;14.80;84.40;;;;;;5095408;28;20394;-38
2022/05/04 12:01:29;;;;;;;7.70;4.20;;;14.80;84.60;;;;;;5107043;28;20023;-42
2022/05/04 12:03:55;;;;;;;7.45;3.85;;;14.90;84.40;;;;;;5094860;28;20055;-43
2022/05/04 12:06:25;;;;;;;10.38;4.57;;;15.00;83.90;;;;;;5107877;28;20073;-43
2022/05/04 12:08:53;;;;;;;6.72;3.83;;;15.00;83.80;;;;;;5095374;28;20032;-41
2022/05/04 12:11:22;;;;;;;5.32;3.40;;;15.10;83.40;;;;;;5107584;28;20468;-44
2022/05/04 12:13:47;;;;;;;5.68;3.78;;;15.10;83.30;;;;;;5097850;28;20039;-43
2022/05/04 12:16:13;;;;;;;5.55;3.40;;;15.10;83.10;;;;;;5105204;28;20024;-42
2022/05/04 12:18:39;;;;;;;6.03;3.70;;;15.20;83.30;;;;;;5100738;28;20016;-44
2022/05/04 12:21:14;;;;;;;6.53;4.28;;;15.30;83.30;;;;;;5102940;28;20032;-43
2022/05/04 12:23:45;;;;;;;5.30;3.92;;;15.30;82.80;;;;;;5100764;28;20692;-41
2022/05/04 12:26:12;;;;;;;4.95;3.25;;;15.30;82.70;;;;;;5102477;28;20054;-43
2022/05/04 12:28:40;;;;;;;9.43;4.50;;;15.30;82.70;;;;;;5102704;28;20437;-42
2022/05/04 12:33:51;;;;;;;4.28;3.17;;;15.30;81.40;;;;;;5103592;28;20148;-43
2022/05/04 12:36:18;;;;;;;4.72;3.55;;;15.50;81.70;;;;;;5098901;28;20142;-42
2022/05/04 12:38:49;;;;;;;5.88;3.90;;;15.50;81.70;;;;;;5103845;28;20107;-42
2022/05/04 12:41:26;;;;;;;5.55;3.20;;;15.60;81.30;;;;;;5097902;28;20028;-42
2022/05/04 12:43:51;;;;;;;5.00;3.10;;;15.60;81.50;;;;;;5104613;28;20028;-43
2022/05/04 12:46:19;;;;;;;3.30;3.00;;;15.70;81.70;;;;;;5096824;28;20042;-42
2022/05/04 12:48:46;;;;;;;4.80;3.10;;;15.80;81.40;;;;;;5104270;28;20024;-43
2022/05/04 12:51:14;;;;;;;4.15;3.25;;;15.90;81.50;;;;;;5095010;28;20026;-42
2022/05/04 12:53:43;;;;;;;9.45;3.90;;;16.00;81.20;;;;;;5105522;28;20038;-40
2022/05/04 12:58:54;;;;;;;5.40;3.47;;;16.10;80.80;;;;;;5087013;28;20063;-42
2022/05/04 13:01:24;;;;;;;6.93;3.67;;;16.10;80.50;;;;;;5097555;28;20107;-43
2022/05/04 13:03:50;;;;;;;5.28;3.40;;;16.10;80.10;;;;;;5087267;28;20031;-43
2022/05/04 13:06:19;;;;;;;5.90;4.25;;;16.20;79.70;;;;;;5098203;28;20009;-43
2022/05/04 13:08:47;;;;;;;7.38;4.10;;;16.20;79.00;;;;;;5087023;28;20028;-42
2022/05/04 13:11:13;;;;;;;5.80;3.40;;;16.20;78.90;;;;;;5098874;28;20032;-42
2022/05/04 13:13:38;;;;;;;4.50;3.22;;;16.20;79.20;;;;;;5086126;28;20047;-42
2022/05/04 13:16:04;;;;;;;9.00;3.85;;;16.20;78.90;;;;;;5099253;28;20039;-43
2022/05/04 13:18:29;;;;;;;6.53;4.15;;;16.20;78.50;;;;;;5086518;28;20499;-40
2022/05/04 13:20:55;;;;;;;9.98;3.47;;;16.30;77.50;;;;;;5095565;28;20035;-41
2022/05/04 13:23:20;;;;;;;6.28;3.40;;;16.20;78.00;;;;;;5089906;28;20161;-41
2022/05/04 13:25:46;;;;;;;7.13;3.50;;;16.30;78.30;;;;;;5092683;28;20074;-42
2022/05/04 13:28:11;;;;;;;7.88;3.88;;;16.40;78.20;;;;;;5091941;28;20039;-42
2022/05/04 13:30:37;;;;;;;6.85;3.90;;;16.40;77.70;;;;;;5089518;28;20016;-43
2022/05/04 13:33:03;;;;;;;6.60;3.50;;;16.40;77.70;;;;;;5095217;28;20047;-42